New York, New York
Traffic Map
Current Weather Conditions
New York, New York
Clear
Clear
21°
Feels Like: 21°
Wind Chill: 21° Ceiling: Unl
Heat Index: 21° Visibility: 10mi
Dew Point: 11° Wind: 3mph
Humidity: 54% Direction: ° ()
Pressure: 30.16in Gusts: 0mph
Raw Report DataKNYC 280451Z AUTO VRB03KT 10SM CLR 21/11 A3016 RMK AO2 SLP203 T02060111 402780194 $
Traffic Incident Summary
Active as of:
Severity:
Category:
InformationThere was an issue retrieving the traffic information for this location. Please try a different location or try again shortly.
Advertisements
Track Severe Weather on mobile